sensor_id;sensor_type;location;lat;lon;timestamp;P1;durP1;ratioP1;P2;durP2;ratioP2
14358;SDS011;7263;49.418;11.064;2022-09-09T00:00:53;4.33;;;1.80;;
14358;SDS011;7263;49.418;11.064;2022-09-09T00:03:24;2.50;;;2.00;;
14358;SDS011;7263;49.418;11.064;2022-09-09T00:05:55;2.57;;;2.07;;
14358;SDS011;7263;49.418;11.064;2022-09-09T00:08:32;3.20;;;1.67;;
14358;SDS011;7263;49.418;11.064;2022-09-09T00:11:07;2.57;;;1.57;;
14358;SDS011;7263;49.418;11.064;2022-09-09T00:13:39;3.40;;;1.80;;
14358;SDS011;7263;49.418;11.064;2022-09-09T00:16:14;3.87;;;1.77;;
14358;SDS011;7263;49.418;11.064;2022-09-09T00:18:48;2.73;;;1.63;;
14358;SDS011;7263;49.418;11.064;2022-09-09T00:21:22;2.30;;;1.60;;
14358;SDS011;7263;49.418;11.064;2022-09-09T00:23:54;5.33;;;1.63;;
14358;SDS011;7263;49.418;11.064;2022-09-09T00:26:22;1.90;;;1.60;;
14358;SDS011;7263;49.418;11.064;2022-09-09T00:29:00;1.97;;;1.50;;
14358;SDS011;7263;49.418;11.064;2022-09-09T00:31:31;3.60;;;1.77;;
14358;SDS011;7263;49.418;11.064;2022-09-09T00:34:02;1.50;;;1.40;;
14358;SDS011;7263;49.418;11.064;2022-09-09T00:36:31;3.07;;;2.23;;
14358;SDS011;7263;49.418;11.064;2022-09-09T00:38:59;2.00;;;1.70;;
14358;SDS011;7263;49.418;11.064;2022-09-09T00:41:30;3.97;;;1.70;;
14358;SDS011;7263;49.418;11.064;2022-09-09T00:44:13;3.20;;;1.90;;
14358;SDS011;7263;49.418;11.064;2022-09-09T00:46:53;2.97;;;1.73;;
14358;SDS011;7263;49.418;11.064;2022-09-09T00:49:26;3.57;;;1.63;;
14358;SDS011;7263;49.418;11.064;2022-09-09T00:52:08;5.00;;;1.63;;
14358;SDS011;7263;49.418;11.064;2022-09-09T00:54:48;1.80;;;1.60;;
14358;SDS011;7263;49.418;11.064;2022-09-09T00:57:25;2.63;;;1.60;;
14358;SDS011;7263;49.418;11.064;2022-09-09T00:59:58;3.50;;;1.70;;
14358;SDS011;7263;49.418;11.064;2022-09-09T01:02:44;1.80;;;1.37;;
14358;SDS011;7263;49.418;11.064;2022-09-09T01:05:27;2.70;;;1.50;;
14358;SDS011;7263;49.418;11.064;2022-09-09T01:08:03;2.17;;;1.43;;
14358;SDS011;7263;49.418;11.064;2022-09-09T01:10:39;2.43;;;1.60;;
14358;SDS011;7263;49.418;11.064;2022-09-09T01:13:15;1.70;;;1.30;;
14358;SDS011;7263;49.418;11.064;2022-09-09T01:15:48;2.73;;;1.80;;
14358;SDS011;7263;49.418;11.064;2022-09-09T01:18:19;2.80;;;1.70;;
14358;SDS011;7263;49.418;11.064;2022-09-09T01:20:53;4.33;;;1.57;;
14358;SDS011;7263;49.418;11.064;2022-09-09T01:23:30;2.40;;;1.63;;
14358;SDS011;7263;49.418;11.064;2022-09-09T01:26:12;2.73;;;1.83;;
14358;SDS011;7263;49.418;11.064;2022-09-09T01:28:41;1.67;;;1.53;;
14358;SDS011;7263;49.418;11.064;2022-09-09T01:31:11;2.87;;;1.90;;
14358;SDS011;7263;49.418;11.064;2022-09-09T01:33:41;2.73;;;1.57;;
14358;SDS011;7263;49.418;11.064;2022-09-09T01:36:10;2.23;;;1.50;;
14358;SDS011;7263;49.418;11.064;2022-09-09T01:38:41;2.73;;;1.90;;
14358;SDS011;7263;49.418;11.064;2022-09-09T01:41:08;2.00;;;1.80;;
14358;SDS011;7263;49.418;11.064;2022-09-09T01:43:36;2.23;;;2.00;;
14358;SDS011;7263;49.418;11.064;2022-09-09T01:46:04;1.87;;;1.67;;
14358;SDS011;7263;49.418;11.064;2022-09-09T01:48:31;2.30;;;1.80;;
14358;SDS011;7263;49.418;11.064;2022-09-09T01:50:59;5.53;;;2.10;;
14358;SDS011;7263;49.418;11.064;2022-09-09T01:53:25;3.23;;;1.70;;
14358;SDS011;7263;49.418;11.064;2022-09-09T01:55:55;3.77;;;1.83;;
14358;SDS011;7263;49.418;11.064;2022-09-09T01:58:32;7.90;;;2.23;;
14358;SDS011;7263;49.418;11.064;2022-09-09T02:01:07;2.60;;;1.77;;
14358;SDS011;7263;49.418;11.064;2022-09-09T02:03:43;2.87;;;1.60;;
14358;SDS011;7263;49.418;11.064;2022-09-09T02:06:18;2.43;;;1.60;;
14358;SDS011;7263;49.418;11.064;2022-09-09T02:08:53;4.37;;;1.60;;
14358;SDS011;7263;49.418;11.064;2022-09-09T02:11:23;3.40;;;2.10;;
14358;SDS011;7263;49.418;11.064;2022-09-09T02:13:53;2.37;;;1.80;;
14358;SDS011;7263;49.418;11.064;2022-09-09T02:16:26;4.60;;;1.90;;
14358;SDS011;7263;49.418;11.064;2022-09-09T02:18:55;3.23;;;1.80;;
14358;SDS011;7263;49.418;11.064;2022-09-09T02:21:27;1.77;;;1.67;;
14358;SDS011;7263;49.418;11.064;2022-09-09T02:23:56;3.47;;;1.80;;
14358;SDS011;7263;49.418;11.064;2022-09-09T02:26:25;5.50;;;1.90;;
14358;SDS011;7263;49.418;11.064;2022-09-09T02:28:53;3.20;;;1.73;;
14358;SDS011;7263;49.418;11.064;2022-09-09T02:31:24;3.30;;;1.77;;
14358;SDS011;7263;49.418;11.064;2022-09-09T02:33:52;3.63;;;2.03;;
14358;SDS011;7263;49.418;11.064;2022-09-09T02:36:21;2.30;;;1.80;;
14358;SDS011;7263;49.418;11.064;2022-09-09T02:38:52;3.10;;;1.80;;
14358;SDS011;7263;49.418;11.064;2022-09-09T02:41:19;1.50;;;1.40;;
14358;SDS011;7263;49.418;11.064;2022-09-09T02:43:50;3.23;;;1.67;;
14358;SDS011;7263;49.418;11.064;2022-09-09T02:46:27;4.40;;;1.73;;
14358;SDS011;7263;49.418;11.064;2022-09-09T02:49:02;2.30;;;1.37;;
14358;SDS011;7263;49.418;11.064;2022-09-09T02:51:34;2.70;;;1.50;;
14358;SDS011;7263;49.418;11.064;2022-09-09T02:54:09;3.20;;;1.80;;
14358;SDS011;7263;49.418;11.064;2022-09-09T02:56:43;2.73;;;1.60;;
14358;SDS011;7263;49.418;11.064;2022-09-09T02:59:16;2.33;;;1.60;;
14358;SDS011;7263;49.418;11.064;2022-09-09T03:01:45;3.07;;;1.80;;
14358;SDS011;7263;49.418;11.064;2022-09-09T03:04:12;3.30;;;1.77;;
14358;SDS011;7263;49.418;11.064;2022-09-09T03:06:38;2.17;;;1.77;;
14358;SDS011;7263;49.418;11.064;2022-09-09T03:09:05;5.73;;;1.63;;
14358;SDS011;7263;49.418;11.064;2022-09-09T03:11:35;2.40;;;1.70;;
14358;SDS011;7263;49.418;11.064;2022-09-09T03:14:03;2.47;;;1.47;;
14358;SDS011;7263;49.418;11.064;2022-09-09T03:16:30;1.97;;;1.60;;
14358;SDS011;7263;49.418;11.064;2022-09-09T03:18:59;1.70;;;1.60;;
14358;SDS011;7263;49.418;11.064;2022-09-09T03:21:26;2.10;;;1.40;;
14358;SDS011;7263;49.418;11.064;2022-09-09T03:23:53;3.77;;;1.63;;
14358;SDS011;7263;49.418;11.064;2022-09-09T03:26:20;3.40;;;1.60;;
14358;SDS011;7263;49.418;11.064;2022-09-09T03:28:47;3.80;;;1.90;;
14358;SDS011;7263;49.418;11.064;2022-09-09T03:31:17;3.93;;;1.73;;
14358;SDS011;7263;49.418;11.064;2022-09-09T03:33:44;3.50;;;2.10;;
14358;SDS011;7263;49.418;11.064;2022-09-09T03:36:13;3.73;;;1.90;;
14358;SDS011;7263;49.418;11.064;2022-09-09T03:38:40;4.87;;;2.03;;
14358;SDS011;7263;49.418;11.064;2022-09-09T03:41:07;2.33;;;1.70;;
14358;SDS011;7263;49.418;11.064;2022-09-09T03:43:35;4.13;;;1.77;;
14358;SDS011;7263;49.418;11.064;2022-09-09T03:46:02;3.17;;;1.93;;
14358;SDS011;7263;49.418;11.064;2022-09-09T03:48:29;2.33;;;1.67;;
14358;SDS011;7263;49.418;11.064;2022-09-09T03:50:56;2.90;;;1.80;;
14358;SDS011;7263;49.418;11.064;2022-09-09T03:53:27;2.13;;;1.80;;
14358;SDS011;7263;49.418;11.064;2022-09-09T03:55:55;3.13;;;1.90;;
14358;SDS011;7263;49.418;11.064;2022-09-09T03:58:25;2.50;;;1.90;;
14358;SDS011;7263;49.418;11.064;2022-09-09T04:00:53;3.23;;;2.00;;
14358;SDS011;7263;49.418;11.064;2022-09-09T04:03:21;4.73;;;2.13;;
14358;SDS011;7263;49.418;11.064;2022-09-09T04:05:49;2.60;;;1.70;;
14358;SDS011;7263;49.418;11.064;2022-09-09T04:08:16;2.57;;;1.90;;
14358;SDS011;7263;49.418;11.064;2022-09-09T04:10:45;5.23;;;1.83;;
14358;SDS011;7263;49.418;11.064;2022-09-09T04:13:13;3.43;;;1.93;;
14358;SDS011;7263;49.418;11.064;2022-09-09T04:15:41;2.40;;;1.90;;
14358;SDS011;7263;49.418;11.064;2022-09-09T04:18:08;4.03;;;1.70;;
14358;SDS011;7263;49.418;11.064;2022-09-09T04:20:36;3.00;;;1.90;;
14358;SDS011;7263;49.418;11.064;2022-09-09T04:23:04;2.67;;;1.80;;
14358;SDS011;7263;49.418;11.064;2022-09-09T04:25:30;2.47;;;1.73;;
14358;SDS011;7263;49.418;11.064;2022-09-09T04:28:00;2.57;;;1.70;;
14358;SDS011;7263;49.418;11.064;2022-09-09T04:30:27;2.70;;;1.90;;
14358;SDS011;7263;49.418;11.064;2022-09-09T04:32:54;3.50;;;1.80;;
14358;SDS011;7263;49.418;11.064;2022-09-09T04:35:22;3.87;;;2.03;;
14358;SDS011;7263;49.418;11.064;2022-09-09T04:37:49;3.63;;;1.80;;
14358;SDS011;7263;49.418;11.064;2022-09-09T04:40:16;3.83;;;2.10;;
14358;SDS011;7263;49.418;11.064;2022-09-09T04:42:43;3.83;;;1.83;;
14358;SDS011;7263;49.418;11.064;2022-09-09T04:45:12;2.37;;;1.90;;
14358;SDS011;7263;49.418;11.064;2022-09-09T04:47:39;2.70;;;1.80;;
14358;SDS011;7263;49.418;11.064;2022-09-09T04:50:07;3.00;;;1.80;;
14358;SDS011;7263;49.418;11.064;2022-09-09T04:52:35;2.87;;;2.17;;
14358;SDS011;7263;49.418;11.064;2022-09-09T04:55:02;4.07;;;2.30;;
14358;SDS011;7263;49.418;11.064;2022-09-09T04:57:29;6.20;;;2.23;;
14358;SDS011;7263;49.418;11.064;2022-09-09T04:59:58;4.00;;;1.90;;
14358;SDS011;7263;49.418;11.064;2022-09-09T05:02:26;2.27;;;1.83;;
14358;SDS011;7263;49.418;11.064;2022-09-09T05:04:53;4.53;;;2.23;;
14358;SDS011;7263;49.418;11.064;2022-09-09T05:07:20;2.73;;;1.90;;
14358;SDS011;7263;49.418;11.064;2022-09-09T05:09:47;3.43;;;1.80;;
14358;SDS011;7263;49.418;11.064;2022-09-09T05:12:14;3.57;;;2.20;;
14358;SDS011;7263;49.418;11.064;2022-09-09T05:14:42;2.73;;;2.00;;
14358;SDS011;7263;49.418;11.064;2022-09-09T05:17:09;6.10;;;2.43;;
14358;SDS011;7263;49.418;11.064;2022-09-09T05:19:39;5.43;;;2.13;;
14358;SDS011;7263;49.418;11.064;2022-09-09T05:22:05;4.03;;;2.30;;
14358;SDS011;7263;49.418;11.064;2022-09-09T05:24:32;6.77;;;2.60;;
14358;SDS011;7263;49.418;11.064;2022-09-09T05:27:00;4.53;;;2.20;;
14358;SDS011;7263;49.418;11.064;2022-09-09T05:29:27;8.87;;;2.27;;
14358;SDS011;7263;49.418;11.064;2022-09-09T05:31:54;3.70;;;2.33;;
14358;SDS011;7263;49.418;11.064;2022-09-09T05:34:21;5.90;;;2.10;;
14358;SDS011;7263;49.418;11.064;2022-09-09T05:36:49;4.40;;;2.07;;
14358;SDS011;7263;49.418;11.064;2022-09-09T05:39:17;3.10;;;2.00;;
14358;SDS011;7263;49.418;11.064;2022-09-09T05:41:44;2.47;;;2.00;;
14358;SDS011;7263;49.418;11.064;2022-09-09T05:44:11;6.73;;;2.00;;
14358;SDS011;7263;49.418;11.064;2022-09-09T05:46:38;3.00;;;1.80;;
14358;SDS011;7263;49.418;11.064;2022-09-09T05:49:05;5.13;;;1.97;;
14358;SDS011;7263;49.418;11.064;2022-09-09T05:51:33;3.60;;;1.97;;
14358;SDS011;7263;49.418;11.064;2022-09-09T05:54:01;4.00;;;1.80;;
14358;SDS011;7263;49.418;11.064;2022-09-09T05:56:29;7.17;;;2.17;;
14358;SDS011;7263;49.418;11.064;2022-09-09T05:58:57;5.67;;;2.10;;
14358;SDS011;7263;49.418;11.064;2022-09-09T06:01:25;6.30;;;2.50;;
14358;SDS011;7263;49.418;11.064;2022-09-09T06:03:53;8.53;;;2.60;;
14358;SDS011;7263;49.418;11.064;2022-09-09T06:06:21;6.60;;;2.63;;
14358;SDS011;7263;49.418;11.064;2022-09-09T06:08:50;5.23;;;1.87;;
14358;SDS011;7263;49.418;11.064;2022-09-09T06:11:20;5.17;;;1.90;;
14358;SDS011;7263;49.418;11.064;2022-09-09T06:13:48;3.77;;;2.13;;
14358;SDS011;7263;49.418;11.064;2022-09-09T06:16:17;3.03;;;2.20;;
14358;SDS011;7263;49.418;11.064;2022-09-09T06:18:45;3.60;;;1.93;;
14358;SDS011;7263;49.418;11.064;2022-09-09T06:21:14;6.73;;;2.03;;
14358;SDS011;7263;49.418;11.064;2022-09-09T06:23:43;7.67;;;1.90;;
14358;SDS011;7263;49.418;11.064;2022-09-09T06:26:11;3.37;;;2.00;;
14358;SDS011;7263;49.418;11.064;2022-09-09T06:28:41;3.97;;;1.90;;
14358;SDS011;7263;49.418;11.064;2022-09-09T06:31:09;6.70;;;3.10;;
14358;SDS011;7263;49.418;11.064;2022-09-09T06:33:38;6.07;;;2.33;;
14358;SDS011;7263;49.418;11.064;2022-09-09T06:36:07;4.33;;;2.37;;
14358;SDS011;7263;49.418;11.064;2022-09-09T06:38:36;5.93;;;2.20;;
14358;SDS011;7263;49.418;11.064;2022-09-09T06:41:03;6.93;;;2.40;;
14358;SDS011;7263;49.418;11.064;2022-09-09T06:43:31;3.00;;;2.00;;
14358;SDS011;7263;49.418;11.064;2022-09-09T06:46:02;4.93;;;1.97;;
14358;SDS011;7263;49.418;11.064;2022-09-09T06:48:29;5.10;;;1.50;;
14358;SDS011;7263;49.418;11.064;2022-09-09T06:51:01;3.30;;;1.90;;
14358;SDS011;7263;49.418;11.064;2022-09-09T06:53:29;5.00;;;1.50;;
14358;SDS011;7263;49.418;11.064;2022-09-09T06:55:58;2.37;;;1.40;;
14358;SDS011;7263;49.418;11.064;2022-09-09T06:58:26;2.40;;;1.40;;
14358;SDS011;7263;49.418;11.064;2022-09-09T07:00:53;4.20;;;1.60;;
14358;SDS011;7263;49.418;11.064;2022-09-09T07:03:28;3.50;;;1.50;;
14358;SDS011;7263;49.418;11.064;2022-09-09T07:05:55;3.17;;;1.20;;
14358;SDS011;7263;49.418;11.064;2022-09-09T07:08:22;5.67;;;1.70;;
14358;SDS011;7263;49.418;11.064;2022-09-09T07:10:50;4.93;;;1.53;;
14358;SDS011;7263;49.418;11.064;2022-09-09T07:13:18;9.67;;;1.63;;
14358;SDS011;7263;49.418;11.064;2022-09-09T07:15:49;6.13;;;1.47;;
14358;SDS011;7263;49.418;11.064;2022-09-09T07:18:17;3.40;;;1.23;;
14358;SDS011;7263;49.418;11.064;2022-09-09T07:20:52;4.00;;;1.47;;
14358;SDS011;7263;49.418;11.064;2022-09-09T07:23:19;5.20;;;1.60;;
14358;SDS011;7263;49.418;11.064;2022-09-09T07:25:46;3.10;;;1.20;;
14358;SDS011;7263;49.418;11.064;2022-09-09T07:28:13;3.93;;;1.43;;
14358;SDS011;7263;49.418;11.064;2022-09-09T07:30:40;7.63;;;1.70;;
14358;SDS011;7263;49.418;11.064;2022-09-09T07:33:07;4.63;;;1.67;;
14358;SDS011;7263;49.418;11.064;2022-09-09T07:35:36;4.70;;;1.97;;
14358;SDS011;7263;49.418;11.064;2022-09-09T07:38:03;3.80;;;1.83;;
14358;SDS011;7263;49.418;11.064;2022-09-09T07:40:31;3.85;;;1.70;;
14358;SDS011;7263;49.418;11.064;2022-09-09T07:42:58;2.88;;;1.50;;
14358;SDS011;7263;49.418;11.064;2022-09-09T07:45:26;5.25;;;1.50;;
14358;SDS011;7263;49.418;11.064;2022-09-09T07:47:54;7.88;;;1.60;;
14358;SDS011;7263;49.418;11.064;2022-09-09T07:50:21;2.42;;;1.77;;
14358;SDS011;7263;49.418;11.064;2022-09-09T07:52:50;5.78;;;1.30;;
14358;SDS011;7263;49.418;11.064;2022-09-09T07:55:17;3.90;;;1.20;;
14358;SDS011;7263;49.418;11.064;2022-09-09T07:57:44;3.58;;;1.20;;
14358;SDS011;7263;49.418;11.064;2022-09-09T08:00:11;3.35;;;1.88;;
14358;SDS011;7263;49.418;11.064;2022-09-09T08:02:39;5.07;;;1.80;;
14358;SDS011;7263;49.418;11.064;2022-09-09T08:05:07;5.07;;;1.90;;
14358;SDS011;7263;49.418;11.064;2022-09-09T08:07:34;2.13;;;1.40;;
14358;SDS011;7263;49.418;11.064;2022-09-09T08:10:02;3.53;;;1.60;;
14358;SDS011;7263;49.418;11.064;2022-09-09T08:12:31;5.25;;;1.40;;
14358;SDS011;7263;49.418;11.064;2022-09-09T08:14:59;3.42;;;1.45;;
14358;SDS011;7263;49.418;11.064;2022-09-09T08:17:26;2.28;;;1.23;;
14358;SDS011;7263;49.418;11.064;2022-09-09T08:19:52;3.80;;;1.40;;
14358;SDS011;7263;49.418;11.064;2022-09-09T08:22:20;2.47;;;1.13;;
14358;SDS011;7263;49.418;11.064;2022-09-09T08:24:47;1.38;;;1.08;;
14358;SDS011;7263;49.418;11.064;2022-09-09T08:27:15;2.42;;;1.35;;
14358;SDS011;7263;49.418;11.064;2022-09-09T08:29:41;2.53;;;1.13;;
14358;SDS011;7263;49.418;11.064;2022-09-09T08:32:09;2.47;;;1.40;;
14358;SDS011;7263;49.418;11.064;2022-09-09T08:34:36;4.43;;;1.15;;
14358;SDS011;7263;49.418;11.064;2022-09-09T08:37:03;4.47;;;1.40;;
14358;SDS011;7263;49.418;11.064;2022-09-09T08:39:30;3.42;;;1.30;;
14358;SDS011;7263;49.418;11.064;2022-09-09T08:42:00;2.95;;;1.20;;
14358;SDS011;7263;49.418;11.064;2022-09-09T08:44:50;3.50;;;1.40;;
14358;SDS011;7263;49.418;11.064;2022-09-09T08:47:33;2.95;;;1.30;;
14358;SDS011;7263;49.418;11.064;2022-09-09T08:50:21;2.45;;;1.15;;
14358;SDS011;7263;49.418;11.064;2022-09-09T08:52:53;1.73;;;1.00;;
14358;SDS011;7263;49.418;11.064;2022-09-09T08:55:25;1.90;;;1.00;;
14358;SDS011;7263;49.418;11.064;2022-09-09T08:58:01;3.30;;;1.30;;
14358;SDS011;7263;49.418;11.064;2022-09-09T09:00:35;1.17;;;1.00;;
14358;SDS011;7263;49.418;11.064;2022-09-09T09:03:13;1.40;;;0.90;;
14358;SDS011;7263;49.418;11.064;2022-09-09T09:05:51;2.42;;;1.05;;
14358;SDS011;7263;49.418;11.064;2022-09-09T09:08:28;3.05;;;1.08;;
14358;SDS011;7263;49.418;11.064;2022-09-09T09:11:03;3.97;;;0.93;;
14358;SDS011;7263;49.418;11.064;2022-09-09T09:13:32;0.90;;;0.60;;
14358;SDS011;7263;49.418;11.064;2022-09-09T09:16:10;1.35;;;0.80;;
14358;SDS011;7263;49.418;11.064;2022-09-09T09:18:45;3.38;;;0.98;;
14358;SDS011;7263;49.418;11.064;2022-09-09T09:21:12;3.08;;;1.00;;
14358;SDS011;7263;49.418;11.064;2022-09-09T09:23:45;2.15;;;0.90;;
14358;SDS011;7263;49.418;11.064;2022-09-09T09:26:19;1.95;;;1.02;;
14358;SDS011;7263;49.418;11.064;2022-09-09T09:28:48;2.15;;;1.20;;
14358;SDS011;7263;49.418;11.064;2022-09-09T09:31:16;1.05;;;0.73;;
14358;SDS011;7263;49.418;11.064;2022-09-09T09:33:47;1.80;;;0.73;;
14358;SDS011;7263;49.418;11.064;2022-09-09T09:36:17;3.60;;;0.90;;
14358;SDS011;7263;49.418;11.064;2022-09-09T09:38:51;1.42;;;0.73;;
14358;SDS011;7263;49.418;11.064;2022-09-09T09:41:28;1.63;;;0.90;;
14358;SDS011;7263;49.418;11.064;2022-09-09T09:43:57;2.72;;;0.77;;
14358;SDS011;7263;49.418;11.064;2022-09-09T09:46:25;1.63;;;0.90;;
14358;SDS011;7263;49.418;11.064;2022-09-09T09:48:56;1.42;;;0.80;;
14358;SDS011;7263;49.418;11.064;2022-09-09T09:51:24;0.88;;;0.80;;
14358;SDS011;7263;49.418;11.064;2022-09-09T09:53:52;1.05;;;0.70;;
14358;SDS011;7263;49.418;11.064;2022-09-09T09:56:26;1.25;;;0.75;;
14358;SDS011;7263;49.418;11.064;2022-09-09T09:58:54;1.63;;;1.15;;
14358;SDS011;7263;49.418;11.064;2022-09-09T10:01:22;1.55;;;0.90;;
14358;SDS011;7263;49.418;11.064;2022-09-09T10:03:54;2.25;;;1.00;;
14358;SDS011;7263;49.418;11.064;2022-09-09T10:06:30;1.40;;;0.85;;
14358;SDS011;7263;49.418;11.064;2022-09-09T10:08:58;1.95;;;1.00;;
14358;SDS011;7263;49.418;11.064;2022-09-09T10:11:32;2.25;;;1.10;;
14358;SDS011;7263;49.418;11.064;2022-09-09T10:14:11;4.20;;;1.10;;
14358;SDS011;7263;49.418;11.064;2022-09-09T10:16:59;1.77;;;0.90;;
14358;SDS011;7263;49.418;11.064;2022-09-09T10:19:35;3.33;;;1.02;;
14358;SDS011;7263;49.418;11.064;2022-09-09T10:22:16;1.65;;;0.75;;
14358;SDS011;7263;49.418;11.064;2022-09-09T10:27:51;3.40;;;1.23;;
14358;SDS011;7263;49.418;11.064;2022-09-09T10:30:28;1.42;;;0.98;;
14358;SDS011;7263;49.418;11.064;2022-09-09T10:33:08;2.60;;;0.90;;
14358;SDS011;7263;49.418;11.064;2022-09-09T10:35:39;1.40;;;0.88;;
14358;SDS011;7263;49.418;11.064;2022-09-09T10:38:15;1.90;;;0.90;;
14358;SDS011;7263;49.418;11.064;2022-09-09T10:40:48;0.90;;;0.80;;
14358;SDS011;7263;49.418;11.064;2022-09-09T10:43:39;1.60;;;1.10;;
14358;SDS011;7263;49.418;11.064;2022-09-09T10:46:17;0.90;;;0.77;;
14358;SDS011;7263;49.418;11.064;2022-09-09T10:48:58;1.73;;;1.02;;
14358;SDS011;7263;49.418;11.064;2022-09-09T10:54:39;2.35;;;1.25;;
14358;SDS011;7263;49.418;11.064;2022-09-09T10:57:22;1.48;;;0.80;;
14358;SDS011;7263;49.418;11.064;2022-09-09T10:59:56;1.95;;;1.10;;
14358;SDS011;7263;49.418;11.064;2022-09-09T11:02:29;2.28;;;0.85;;
14358;SDS011;7263;49.418;11.064;2022-09-09T11:04:58;1.75;;;1.08;;
14358;SDS011;7263;49.418;11.064;2022-09-09T11:07:32;1.98;;;0.73;;
14358;SDS011;7263;49.418;11.064;2022-09-09T11:10:04;2.55;;;1.13;;
14358;SDS011;7263;49.418;11.064;2022-09-09T11:12:42;4.28;;;1.00;;
14358;SDS011;7263;49.418;11.064;2022-09-09T11:15:14;4.03;;;0.98;;
14358;SDS011;7263;49.418;11.064;2022-09-09T11:21:20;0.93;;;0.73;;
14358;SDS011;7263;49.418;11.064;2022-09-09T11:23:53;0.93;;;0.60;;
14358;SDS011;7263;49.418;11.064;2022-09-09T11:26:25;4.07;;;1.05;;
14358;SDS011;7263;49.418;11.064;2022-09-09T11:29:05;3.70;;;1.10;;
14358;SDS011;7263;49.418;11.064;2022-09-09T11:31:44;2.10;;;1.00;;
14358;SDS011;7263;49.418;11.064;2022-09-09T11:34:31;1.17;;;0.68;;
14358;SDS011;7263;49.418;11.064;2022-09-09T11:37:12;2.55;;;1.00;;
14358;SDS011;7263;49.418;11.064;2022-09-09T11:43:00;3.50;;;1.17;;
14358;SDS011;7263;49.418;11.064;2022-09-09T11:45:31;1.83;;;0.85;;
14358;SDS011;7263;49.418;11.064;2022-09-09T11:48:00;1.33;;;0.80;;
14358;SDS011;7263;49.418;11.064;2022-09-09T11:50:30;2.33;;;1.17;;
14358;SDS011;7263;49.418;11.064;2022-09-09T11:53:05;1.98;;;1.20;;
14358;SDS011;7263;49.418;11.064;2022-09-09T11:55:59;2.38;;;1.10;;
14358;SDS011;7263;49.418;11.064;2022-09-09T11:58:28;2.05;;;0.93;;
14358;SDS011;7263;49.418;11.064;2022-09-09T12:01:12;1.48;;;0.75;;
14358;SDS011;7263;49.418;11.064;2022-09-09T12:03:41;2.95;;;1.08;;
14358;SDS011;7263;49.418;11.064;2022-09-09T12:06:11;3.60;;;1.10;;
14358;SDS011;7263;49.418;11.064;2022-09-09T12:08:42;2.30;;;1.10;;
14358;SDS011;7263;49.418;11.064;2022-09-09T12:11:12;1.60;;;1.00;;
14358;SDS011;7263;49.418;11.064;2022-09-09T12:13:54;1.48;;;0.80;;
14358;SDS011;7263;49.418;11.064;2022-09-09T12:16:28;2.05;;;0.93;;
14358;SDS011;7263;49.418;11.064;2022-09-09T12:19:06;1.60;;;0.88;;
14358;SDS011;7263;49.418;11.064;2022-09-09T12:21:41;2.15;;;0.65;;
14358;SDS011;7263;49.418;11.064;2022-09-09T12:24:15;2.75;;;0.57;;
14358;SDS011;7263;49.418;11.064;2022-09-09T12:26:50;0.98;;;0.52;;
14358;SDS011;7263;49.418;11.064;2022-09-09T12:29:24;1.00;;;0.63;;
14358;SDS011;7263;49.418;11.064;2022-09-09T12:31:56;0.93;;;0.60;;
14358;SDS011;7263;49.418;11.064;2022-09-09T12:34:35;1.58;;;0.82;;
14358;SDS011;7263;49.418;11.064;2022-09-09T12:37:06;0.95;;;0.80;;
14358;SDS011;7263;49.418;11.064;2022-09-09T12:39:44;2.60;;;1.00;;
14358;SDS011;7263;49.418;11.064;2022-09-09T12:42:17;0.93;;;0.63;;
14358;SDS011;7263;49.418;11.064;2022-09-09T12:44:51;2.50;;;0.93;;
14358;SDS011;7263;49.418;11.064;2022-09-09T12:47:19;1.95;;;1.00;;
14358;SDS011;7263;49.418;11.064;2022-09-09T12:49:48;1.55;;;0.80;;
14358;SDS011;7263;49.418;11.064;2022-09-09T12:52:19;2.60;;;1.15;;
14358;SDS011;7263;49.418;11.064;2022-09-09T12:54:55;3.05;;;1.10;;
14358;SDS011;7263;49.418;11.064;2022-09-09T12:57:24;2.88;;;0.90;;
14358;SDS011;7263;49.418;11.064;2022-09-09T13:00:03;1.20;;;0.98;;
14358;SDS011;7263;49.418;11.064;2022-09-09T13:02:45;2.92;;;0.90;;
14358;SDS011;7263;49.418;11.064;2022-09-09T13:05:16;2.55;;;0.85;;
14358;SDS011;7263;49.418;11.064;2022-09-09T13:07:44;7.80;;;1.10;;
14358;SDS011;7263;49.418;11.064;2022-09-09T13:10:12;3.92;;;0.50;;
14358;SDS011;7263;49.418;11.064;2022-09-09T13:12:41;7.13;;;1.02;;
14358;SDS011;7263;49.418;11.064;2022-09-09T13:15:12;1.67;;;0.63;;
14358;SDS011;7263;49.418;11.064;2022-09-09T13:17:49;1.85;;;0.90;;
14358;SDS011;7263;49.418;11.064;2022-09-09T13:20:18;1.83;;;0.90;;
14358;SDS011;7263;49.418;11.064;2022-09-09T13:22:46;1.13;;;0.77;;
14358;SDS011;7263;49.418;11.064;2022-09-09T13:25:19;3.03;;;0.73;;
14358;SDS011;7263;49.418;11.064;2022-09-09T13:27:59;3.25;;;0.80;;
14358;SDS011;7263;49.418;11.064;2022-09-09T13:30:28;1.98;;;0.90;;
14358;SDS011;7263;49.418;11.064;2022-09-09T13:33:05;1.15;;;0.95;;
14358;SDS011;7263;49.418;11.064;2022-09-09T13:35:49;0.90;;;0.60;;
14358;SDS011;7263;49.418;11.064;2022-09-09T13:38:19;2.92;;;0.90;;
14358;SDS011;7263;49.418;11.064;2022-09-09T13:40:54;1.80;;;0.75;;
14358;SDS011;7263;49.418;11.064;2022-09-09T13:43:28;1.98;;;0.73;;
14358;SDS011;7263;49.418;11.064;2022-09-09T13:45:58;1.08;;;0.57;;
14358;SDS011;7263;49.418;11.064;2022-09-09T13:48:26;1.52;;;0.70;;
14358;SDS011;7263;49.418;11.064;2022-09-09T13:50:57;1.10;;;0.55;;
14358;SDS011;7263;49.418;11.064;2022-09-09T13:53:25;0.90;;;0.35;;
14358;SDS011;7263;49.418;11.064;2022-09-09T13:55:52;1.42;;;0.52;;
14358;SDS011;7263;49.418;11.064;2022-09-09T13:58:19;0.85;;;0.40;;
14358;SDS011;7263;49.418;11.064;2022-09-09T14:00:49;0.30;;;0.20;;
14358;SDS011;7263;49.418;11.064;2022-09-09T14:03:16;2.60;;;0.50;;
14358;SDS011;7263;49.418;11.064;2022-09-09T14:05:43;2.20;;;0.80;;
14358;SDS011;7263;49.418;11.064;2022-09-09T14:08:15;1.70;;;0.70;;
14358;SDS011;7263;49.418;11.064;2022-09-09T14:10:47;3.28;;;0.85;;
14358;SDS011;7263;49.418;11.064;2022-09-09T14:13:14;0.90;;;0.68;;
14358;SDS011;7263;49.418;11.064;2022-09-09T14:15:41;3.95;;;1.10;;
14358;SDS011;7263;49.418;11.064;2022-09-09T14:18:10;2.22;;;0.82;;
14358;SDS011;7263;49.418;11.064;2022-09-09T14:20:39;2.92;;;0.80;;
14358;SDS011;7263;49.418;11.064;2022-09-09T14:23:07;2.03;;;0.90;;
14358;SDS011;7263;49.418;11.064;2022-09-09T14:25:39;3.28;;;0.90;;
14358;SDS011;7263;49.418;11.064;2022-09-09T14:28:08;1.58;;;0.77;;
14358;SDS011;7263;49.418;11.064;2022-09-09T14:30:36;3.42;;;0.88;;
14358;SDS011;7263;49.418;11.064;2022-09-09T14:33:04;3.83;;;1.00;;
14358;SDS011;7263;49.418;11.064;2022-09-09T14:35:32;1.45;;;0.80;;
14358;SDS011;7263;49.418;11.064;2022-09-09T14:37:59;2.03;;;0.68;;
14358;SDS011;7263;49.418;11.064;2022-09-09T14:40:27;2.45;;;0.82;;
14358;SDS011;7263;49.418;11.064;2022-09-09T14:42:54;2.28;;;0.98;;
14358;SDS011;7263;49.418;11.064;2022-09-09T14:45:21;1.85;;;0.90;;
14358;SDS011;7263;49.418;11.064;2022-09-09T14:47:49;2.80;;;0.85;;
14358;SDS011;7263;49.418;11.064;2022-09-09T14:50:16;2.67;;;1.00;;
14358;SDS011;7263;49.418;11.064;2022-09-09T14:52:45;2.25;;;1.08;;
14358;SDS011;7263;49.418;11.064;2022-09-09T14:55:12;2.25;;;1.05;;
14358;SDS011;7263;49.418;11.064;2022-09-09T14:57:40;2.60;;;1.05;;
14358;SDS011;7263;49.418;11.064;2022-09-09T15:00:07;1.48;;;0.90;;
14358;SDS011;7263;49.418;11.064;2022-09-09T15:02:35;1.30;;;0.85;;
14358;SDS011;7263;49.418;11.064;2022-09-09T15:05:02;3.95;;;0.90;;
14358;SDS011;7263;49.418;11.064;2022-09-09T15:07:29;2.00;;;0.88;;
14358;SDS011;7263;49.418;11.064;2022-09-09T15:09:58;1.50;;;0.77;;
14358;SDS011;7263;49.418;11.064;2022-09-09T15:12:25;2.28;;;0.88;;
14358;SDS011;7263;49.418;11.064;2022-09-09T15:14:53;2.15;;;1.00;;
14358;SDS011;7263;49.418;11.064;2022-09-09T15:17:20;4.50;;;0.85;;
14358;SDS011;7263;49.418;11.064;2022-09-09T15:19:52;5.53;;;0.93;;
14358;SDS011;7263;49.418;11.064;2022-09-09T15:22:19;3.15;;;1.00;;